createdAt,value
2018-11-21T00:02:06.551Z,2.31
2018-11-21T00:04:34.988Z,2.32
2018-11-21T00:07:03.409Z,2.30
2018-11-21T00:09:31.896Z,2.33
2018-11-21T00:12:00.361Z,2.32
2018-11-21T00:14:28.778Z,2.35
2018-11-21T00:16:57.220Z,2.28
2018-11-21T00:19:25.646Z,2.34
2018-11-21T00:21:54.124Z,2.34
2018-11-21T00:24:22.576Z,2.29
2018-11-21T00:26:51.238Z,2.36
2018-11-21T00:29:19.760Z,2.32
2018-11-21T00:31:48.194Z,2.30
2018-11-21T00:34:16.681Z,2.35
2018-11-21T00:36:45.142Z,2.24
2018-11-21T00:39:13.608Z,2.21
2018-11-21T00:41:42.163Z,2.21
2018-11-21T00:44:11.406Z,2.22
2018-11-21T00:46:39.848Z,2.19
2018-11-21T00:49:08.281Z,2.20
2018-11-21T00:51:36.762Z,2.17
2018-11-21T00:54:05.534Z,2.09
2018-11-21T00:56:34.011Z,2.09
2018-11-21T00:59:02.417Z,1.98
2018-11-21T01:01:30.856Z,1.93
2018-11-21T01:03:59.327Z,1.97
2018-11-21T01:06:27.748Z,1.99
2018-11-21T01:08:56.339Z,2.02
2018-11-21T01:11:24.871Z,2.07
2018-11-21T01:13:53.225Z,2.00
2018-11-21T01:16:21.717Z,2.02
2018-11-21T01:18:50.136Z,2.00
2018-11-21T01:21:18.560Z,2.05
2018-11-21T01:23:47.029Z,1.98
2018-11-21T01:26:15.487Z,2.05
2018-11-21T01:28:43.910Z,2.13
2018-11-21T01:31:12.535Z,2.11
2018-11-21T01:33:41.029Z,2.24
2018-11-21T01:36:09.398Z,2.19
2018-11-21T01:38:37.873Z,2.15
2018-11-21T01:41:06.324Z,2.10
2018-11-21T01:43:34.764Z,2.08
2018-11-21T01:46:03.306Z,2.10
2018-11-21T01:48:31.664Z,2.07
2018-11-21T01:51:00.124Z,2.10
2018-11-21T01:53:28.589Z,2.05
2018-11-21T01:55:57.017Z,2.07
2018-11-21T01:58:25.485Z,2.10
2018-11-21T02:00:53.905Z,2.04
2018-11-21T02:03:22.370Z,2.04
2018-11-21T02:05:50.801Z,2.05
2018-11-21T02:08:19.230Z,2.08
2018-11-21T02:10:47.680Z,2.12
2018-11-21T02:13:16.097Z,2.10
2018-11-21T02:15:44.573Z,2.10
2018-11-21T02:18:13.308Z,2.09
2018-11-21T02:20:41.762Z,2.02
2018-11-21T02:23:10.259Z,2.04
2018-11-21T02:25:38.675Z,2.03
2018-11-21T02:28:07.222Z,2.05
2018-11-21T02:30:35.665Z,2.07
2018-11-21T02:33:04.107Z,2.09
2018-11-21T02:35:32.574Z,2.01
2018-11-21T02:38:00.998Z,1.95
2018-11-21T02:40:29.483Z,2.00
2018-11-21T02:42:57.953Z,1.98
2018-11-21T02:45:26.387Z,1.94
2018-11-21T02:47:54.830Z,1.91
2018-11-21T02:50:23.303Z,1.95
2018-11-21T02:52:52.105Z,1.98
2018-11-21T02:55:20.546Z,1.98
2018-11-21T02:57:48.985Z,1.91
2018-11-21T03:00:22.702Z,1.86
2018-11-21T03:02:51.132Z,1.91
2018-11-21T03:05:19.601Z,2.03
2018-11-21T03:07:52.264Z,1.94
2018-11-21T03:10:21.923Z,1.92
2018-11-21T03:12:50.376Z,1.93
2018-11-21T03:15:19.050Z,1.81
2018-11-21T03:17:47.652Z,1.82
2018-11-21T03:20:16.615Z,1.84
2018-11-21T03:22:45.384Z,1.86
2018-11-21T03:25:14.001Z,1.85
2018-11-21T03:27:42.441Z,1.85
2018-11-21T03:30:11.937Z,1.82
2018-11-21T03:32:41.105Z,1.80
2018-11-21T03:35:09.922Z,1.78
2018-11-21T03:37:38.349Z,1.81
2018-11-21T03:40:11.363Z,1.70
2018-11-21T03:42:40.152Z,1.74
2018-11-21T03:45:10.221Z,1.65
2018-11-21T03:47:38.718Z,1.69
2018-11-21T03:50:09.060Z,1.73
2018-11-21T03:52:37.831Z,1.72
2018-11-21T03:55:07.074Z,1.72
2018-11-21T03:57:35.541Z,1.74
2018-11-21T04:00:03.992Z,1.78
2018-11-21T04:02:32.412Z,1.65
2018-11-21T04:05:00.875Z,1.67
2018-11-21T04:07:29.305Z,1.64
2018-11-21T04:09:57.733Z,1.60
2018-11-21T04:12:26.183Z,1.59
2018-11-21T04:14:54.616Z,1.54
2018-11-21T04:17:23.085Z,1.59
2018-11-21T04:19:51.529Z,1.65
2018-11-21T04:22:20.012Z,1.75
2018-11-21T04:24:48.416Z,1.68
2018-11-21T04:27:16.840Z,1.62
2018-11-21T04:29:45.415Z,1.71
2018-11-21T04:32:13.873Z,1.73
2018-11-21T04:34:42.372Z,1.74
2018-11-21T04:37:10.831Z,1.81
2018-11-21T04:39:39.276Z,1.63
2018-11-21T04:42:08.556Z,1.72
2018-11-21T04:44:36.173Z,1.84
2018-11-21T04:47:04.637Z,1.65
2018-11-21T04:49:33.092Z,1.62
2018-11-21T04:52:01.568Z,1.66
2018-11-21T04:54:30.325Z,1.52
2018-11-21T04:56:58.795Z,1.40
2018-11-21T04:59:27.248Z,1.51
2018-11-21T05:01:55.711Z,1.53
2018-11-21T05:04:24.160Z,1.16
2018-11-21T05:06:52.631Z,1.23
2018-11-21T05:09:21.073Z,1.14
2018-11-21T05:11:49.517Z,1.26
2018-11-21T05:14:17.981Z,1.27
2018-11-21T05:16:46.511Z,1.29
2018-11-21T05:19:14.972Z,1.00
2018-11-21T05:21:43.412Z,0.95
2018-11-21T05:24:11.961Z,1.38
2018-11-21T05:26:40.436Z,1.34
2018-11-21T05:29:08.875Z,1.32
2018-11-21T05:31:37.437Z,1.26
2018-11-21T05:34:05.882Z,1.53
2018-11-21T05:36:34.616Z,1.51
2018-11-21T05:39:03.153Z,1.68
2018-11-21T05:41:31.602Z,1.61
2018-11-21T05:44:00.080Z,1.57
2018-11-21T05:46:28.584Z,1.55
2018-11-21T05:48:57.336Z,1.51
2018-11-21T05:51:25.808Z,1.51
2018-11-21T05:53:54.220Z,1.58
2018-11-21T05:56:22.727Z,1.54
2018-11-21T05:58:51.149Z,1.54
2018-11-21T06:01:19.729Z,1.59
2018-11-21T06:03:48.148Z,1.55
2018-11-21T06:06:16.866Z,1.59
2018-11-21T06:08:45.483Z,1.62
2018-11-21T06:11:14.109Z,1.64
2018-11-21T06:13:42.601Z,1.66
2018-11-21T06:16:11.338Z,1.65
2018-11-21T06:18:39.784Z,1.65
2018-11-21T06:21:08.233Z,1.67
2018-11-21T06:23:36.991Z,1.72
2018-11-21T06:26:05.940Z,1.66
2018-11-21T06:28:34.449Z,1.65
2018-11-21T06:31:22.083Z,1.62
2018-11-21T06:33:50.507Z,1.60
2018-11-21T06:36:38.020Z,1.54
2018-11-21T06:39:26.839Z,1.49
2018-11-21T06:42:14.331Z,1.48
2018-11-21T06:45:01.784Z,1.44
2018-11-21T06:47:49.366Z,1.32
2018-11-21T06:50:36.830Z,1.31
2018-11-21T06:53:24.742Z,1.31
2018-11-21T06:55:53.409Z,1.26
2018-11-21T06:58:41.040Z,1.29
2018-11-21T07:01:28.486Z,1.29
2018-11-21T07:04:16.135Z,1.21
2018-11-21T07:07:03.597Z,1.22
2018-11-21T07:09:51.205Z,1.16
2018-11-21T07:12:38.682Z,1.23
2018-11-21T07:15:26.678Z,1.24
2018-11-21T07:17:55.117Z,1.24
2018-11-21T07:20:42.646Z,1.25
2018-11-21T07:23:30.091Z,1.25
2018-11-21T07:26:17.659Z,1.30
2018-11-21T07:29:05.151Z,1.34
2018-11-21T07:31:52.655Z,1.31
2018-11-21T07:34:40.147Z,1.33
2018-11-21T07:37:27.714Z,1.40
2018-11-21T07:39:56.154Z,1.34
2018-11-21T07:42:43.722Z,1.36
2018-11-21T07:45:31.605Z,1.40
2018-11-21T07:48:20.585Z,1.42
2018-11-21T07:51:06.536Z,1.47
2018-11-21T07:53:54.027Z,1.47
2018-11-21T07:57:02.725Z,1.56
2018-11-21T07:59:31.966Z,1.61
2018-11-21T08:02:19.443Z,1.73
2018-11-21T08:05:06.944Z,1.74
2018-11-21T08:07:54.450Z,1.83
2018-11-21T08:10:41.966Z,1.87
2018-11-21T08:13:29.423Z,1.99
2018-11-21T08:16:16.902Z,2.02
2018-11-21T08:19:04.371Z,2.06
2018-11-21T08:21:51.850Z,2.22
2018-11-21T08:24:39.311Z,2.27
2018-11-21T08:27:26.883Z,2.32
2018-11-21T08:30:14.394Z,2.28
2018-11-21T08:33:01.958Z,2.26
2018-11-21T08:35:49.406Z,2.27
2018-11-21T08:38:36.998Z,2.50
2018-11-21T08:41:24.666Z,2.44
2018-11-21T08:44:12.314Z,2.57
2018-11-21T08:46:59.779Z,2.57
2018-11-21T08:49:47.273Z,2.45
2018-11-21T08:52:34.750Z,2.55
2018-11-21T08:55:08.818Z,2.64
2018-11-21T08:57:51.353Z,2.63
2018-11-21T09:00:38.965Z,2.75
2018-11-21T09:03:07.929Z,2.75
2018-11-21T09:05:55.603Z,2.73
2018-11-21T09:08:43.224Z,2.75
2018-11-21T09:11:30.833Z,2.81
2018-11-21T09:14:18.384Z,2.78
2018-11-21T09:17:06.083Z,2.80
2018-11-21T09:19:53.705Z,2.94
2018-11-21T09:22:41.465Z,3.13
2018-11-21T09:25:29.358Z,3.03
2018-11-21T09:28:17.034Z,3.02
2018-11-21T09:31:04.575Z,2.87
2018-11-21T09:36:07.759Z,3.01
2018-11-21T09:38:55.457Z,3.02
2018-11-21T09:41:43.089Z,3.09
2018-11-21T09:44:30.762Z,2.95
2018-11-21T09:47:18.349Z,2.97
2018-11-21T09:50:06.064Z,2.94
2018-11-21T09:52:53.699Z,2.97
2018-11-21T09:55:22.269Z,3.00
2018-11-21T09:58:09.858Z,2.96
2018-11-21T10:01:17.257Z,3.07
2018-11-21T10:04:04.853Z,2.98
2018-11-21T10:06:55.188Z,2.96
2018-11-21T10:09:26.409Z,2.88
2018-11-21T10:12:14.061Z,2.90
2018-11-21T10:15:01.630Z,3.04
2018-11-21T10:17:49.330Z,3.06
2018-11-21T10:20:36.916Z,3.02
2018-11-21T10:23:24.813Z,3.06
2018-11-21T10:26:12.478Z,3.09
2018-11-21T10:29:00.209Z,3.18
2018-11-21T10:31:28.924Z,3.09
2018-11-21T10:34:16.486Z,3.30
2018-11-21T10:37:04.057Z,3.32
2018-11-21T10:39:51.729Z,3.27
2018-11-21T10:42:39.313Z,3.34
2018-11-21T10:45:27.794Z,3.21
2018-11-21T10:48:15.370Z,3.20
2018-11-21T10:51:02.989Z,3.38
2018-11-21T10:53:50.663Z,3.48
2018-11-21T10:56:38.537Z,3.48
2018-11-21T10:59:26.218Z,3.34
2018-11-21T11:02:13.897Z,3.34
2018-11-21T11:05:01.447Z,3.33
2018-11-21T11:07:49.245Z,3.50
2018-11-21T11:10:36.778Z,3.23
2018-11-21T11:13:24.625Z,3.30
2018-11-21T11:16:12.305Z,3.30
2018-11-21T11:18:59.975Z,3.42
2018-11-21T11:21:47.578Z,3.45
2018-11-21T11:24:35.246Z,3.54
2018-11-21T11:27:22.837Z,3.50
2018-11-21T11:30:10.501Z,3.52
2018-11-21T11:32:58.082Z,3.63
2018-11-21T11:35:45.811Z,3.67
2018-11-21T11:38:33.435Z,3.71
2018-11-21T11:41:21.136Z,3.78
2018-11-21T11:44:08.817Z,3.67
2018-11-21T11:46:56.609Z,3.69
2018-11-21T11:49:44.181Z,3.65
2018-11-21T11:52:31.836Z,3.63
2018-11-21T11:55:19.457Z,3.62
2018-11-21T11:58:07.149Z,3.75
2018-11-21T12:00:54.821Z,3.69
2018-11-21T12:03:42.672Z,3.82
2018-11-21T12:06:30.277Z,3.67
2018-11-21T12:09:18.023Z,3.80
2018-11-21T12:12:05.737Z,3.92
2018-11-21T12:14:53.467Z,3.87
2018-11-21T12:20:33.795Z,3.82
2018-11-21T12:23:21.337Z,3.86
2018-11-21T12:26:10.602Z,3.78
2018-11-21T12:28:56.484Z,3.74
2018-11-21T12:31:44.112Z,3.88
2018-11-21T12:34:31.820Z,3.78
2018-11-21T12:37:19.620Z,3.89
2018-11-21T12:40:07.181Z,3.88
2018-11-21T12:42:54.860Z,3.91
2018-11-21T12:45:42.519Z,3.82
2018-11-21T12:48:30.281Z,3.93
2018-11-21T12:51:17.817Z,4.01
2018-11-21T12:54:05.421Z,4.08
2018-11-21T12:56:53.054Z,4.00
2018-11-21T12:59:40.699Z,4.19
2018-11-21T13:02:28.286Z,4.19
2018-11-21T13:05:15.973Z,4.07
2018-11-21T13:08:03.529Z,3.95
2018-11-21T13:10:51.227Z,4.01
2018-11-21T13:13:38.825Z,4.04
2018-11-21T13:16:26.475Z,4.16
2018-11-21T13:19:14.060Z,4.29
2018-11-21T13:22:01.774Z,4.30
2018-11-21T13:24:49.367Z,4.44
2018-11-21T13:27:37.096Z,4.35
2018-11-21T13:30:27.688Z,4.23
2018-11-21T13:33:15.395Z,4.25
2018-11-21T13:36:03.038Z,4.23
2018-11-21T13:38:50.707Z,4.32
2018-11-21T13:41:38.301Z,4.27
2018-11-21T13:44:26.082Z,4.25
2018-11-21T13:47:13.911Z,4.21
2018-11-21T13:50:01.431Z,4.41
2018-11-21T13:52:49.049Z,4.26
2018-11-21T13:55:36.777Z,4.23
2018-11-21T13:58:24.489Z,4.32
2018-11-21T14:01:12.189Z,4.28
2018-11-21T14:03:59.863Z,4.29
2018-11-21T14:06:28.530Z,4.30
2018-11-21T14:08:57.094Z,4.41
2018-11-21T14:11:25.858Z,4.36
2018-11-21T14:14:13.747Z,4.40
2018-11-21T14:16:42.368Z,4.30
2018-11-21T14:19:29.966Z,4.43
2018-11-21T14:21:58.633Z,4.48
2018-11-21T14:24:46.313Z,4.46
2018-11-21T14:27:33.901Z,4.28
2018-11-21T14:30:21.534Z,4.37
2018-11-21T14:33:09.076Z,4.49
2018-11-21T14:35:56.683Z,4.52
2018-11-21T14:38:44.339Z,4.37
2018-11-21T14:41:32.087Z,4.31
2018-11-21T14:44:19.673Z,4.51
2018-11-21T14:46:50.292Z,4.39
2018-11-21T14:49:37.987Z,4.42
2018-11-21T14:52:25.579Z,4.33
2018-11-21T14:55:13.211Z,4.30
2018-11-21T14:58:00.895Z,4.23
2018-11-21T15:00:48.568Z,4.23
2018-11-21T15:03:36.467Z,4.28
2018-11-21T15:06:24.396Z,4.25
2018-11-21T15:09:12.224Z,4.22
2018-11-21T15:11:41.721Z,4.14
2018-11-21T15:14:29.372Z,4.10
2018-11-21T15:17:16.944Z,4.09
2018-11-21T15:20:04.594Z,4.13
2018-11-21T15:22:52.198Z,4.15
2018-11-21T15:25:39.862Z,4.14
2018-11-21T15:28:27.944Z,4.14
2018-11-21T15:30:56.137Z,4.08
2018-11-21T15:33:43.684Z,4.06
2018-11-21T15:36:12.478Z,4.07
2018-11-21T15:39:00.110Z,4.03
2018-11-21T15:41:28.825Z,4.13
2018-11-21T15:44:16.384Z,4.08
2018-11-21T15:47:04.100Z,4.03
2018-11-21T15:49:51.786Z,4.02
2018-11-21T15:52:39.449Z,4.01
2018-11-21T15:55:27.775Z,3.98
2018-11-21T15:58:15.398Z,3.97
2018-11-21T16:01:03.008Z,3.97
2018-11-21T16:03:50.600Z,3.95
2018-11-21T16:06:38.170Z,3.98
2018-11-21T16:09:28.528Z,3.94
2018-11-21T16:12:16.198Z,3.98
2018-11-21T16:15:03.824Z,4.00
2018-11-21T16:17:51.389Z,4.10
2018-11-21T16:20:20.320Z,4.01
2018-11-21T16:23:07.875Z,3.93
2018-11-21T16:25:55.471Z,3.96
2018-11-21T16:28:24.147Z,3.98
2018-11-21T16:31:11.882Z,4.03
2018-11-21T16:33:59.457Z,3.94
2018-11-21T16:36:47.120Z,3.96
2018-11-21T16:39:34.690Z,3.93
2018-11-21T16:42:22.252Z,3.88
2018-11-21T16:45:09.860Z,3.88
2018-11-21T16:47:38.643Z,3.89
2018-11-21T16:50:30.528Z,3.91
2018-11-21T16:53:18.119Z,3.95
2018-11-21T16:56:05.746Z,4.00
2018-11-21T16:58:53.405Z,3.93
2018-11-21T17:01:41.006Z,3.89
2018-11-21T17:04:28.631Z,3.94
2018-11-21T17:07:16.267Z,3.89
2018-11-21T17:10:03.883Z,3.88
2018-11-21T17:12:51.482Z,3.92
2018-11-21T17:15:39.081Z,3.90
2018-11-21T17:18:26.628Z,3.91
2018-11-21T17:21:14.210Z,3.90
2018-11-21T17:24:01.864Z,3.89
2018-11-21T17:26:30.605Z,3.88
2018-11-21T17:28:59.159Z,3.93
2018-11-21T17:31:46.876Z,3.90
2018-11-21T17:34:34.423Z,3.91
2018-11-21T17:37:22.079Z,3.89
2018-11-21T17:40:09.648Z,3.90
2018-11-21T17:42:57.316Z,3.87
2018-11-21T17:45:44.899Z,3.86
2018-11-21T17:48:32.568Z,3.88
2018-11-21T17:51:01.238Z,3.89
2018-11-21T17:53:29.831Z,3.97
2018-11-21T17:56:17.474Z,3.96
2018-11-21T17:59:05.059Z,3.97
2018-11-21T18:01:33.900Z,3.89
2018-11-21T18:04:21.468Z,3.89
2018-11-21T18:07:09.096Z,3.92
2018-11-21T18:09:37.746Z,3.94
2018-11-21T18:12:25.488Z,3.91
2018-11-21T18:15:13.192Z,3.90
2018-11-21T18:18:01.012Z,3.92
2018-11-21T18:20:29.586Z,3.91
2018-11-21T18:23:17.156Z,3.90
2018-11-21T18:25:52.675Z,3.88
2018-11-21T18:28:21.205Z,3.87
2018-11-21T18:31:09.025Z,3.91
2018-11-21T18:33:56.566Z,3.95
2018-11-21T18:36:44.151Z,4.05
2018-11-21T18:39:31.691Z,3.91
2018-11-21T18:42:19.295Z,3.93
2018-11-21T18:45:06.911Z,3.93
2018-11-21T18:47:54.562Z,3.92
2018-11-21T18:50:23.450Z,3.95
2018-11-21T18:53:11.115Z,3.93
2018-11-21T18:56:01.052Z,3.93
2018-11-21T18:59:08.216Z,3.94
2018-11-21T19:01:55.757Z,3.93
2018-11-21T19:04:43.477Z,4.07
2018-11-21T19:07:30.982Z,4.15
2018-11-21T19:10:18.750Z,4.06
2018-11-21T19:13:06.352Z,4.20
2018-11-21T19:15:53.959Z,4.21
2018-11-21T19:18:41.547Z,4.19
2018-11-21T19:21:29.158Z,4.21
2018-11-21T19:24:16.805Z,4.31
2018-11-21T19:27:04.490Z,4.06
2018-11-21T19:29:33.195Z,4.14
2018-11-21T19:32:20.887Z,4.05
2018-11-21T19:35:08.554Z,4.11
2018-11-21T19:37:56.208Z,4.09
2018-11-21T19:40:43.947Z,4.07
2018-11-21T19:43:31.633Z,4.05
2018-11-21T19:46:19.289Z,4.02
2018-11-21T19:49:06.980Z,3.96
2018-11-21T19:51:54.569Z,3.90
2018-11-21T19:54:23.268Z,3.96
2018-11-21T19:57:10.791Z,3.99
2018-11-21T19:59:43.523Z,4.03
2018-11-21T20:02:08.182Z,4.03
2018-11-21T20:04:36.806Z,3.93
2018-11-21T20:07:24.389Z,3.94
2018-11-21T20:09:53.003Z,3.81
2018-11-21T20:12:40.814Z,3.89
2018-11-21T20:15:29.748Z,3.90
2018-11-21T20:18:17.424Z,3.89
2018-11-21T20:21:05.118Z,3.96
2018-11-21T20:23:52.766Z,3.92
2018-11-21T20:26:40.299Z,4.04
2018-11-21T20:29:28.211Z,4.14
2018-11-21T20:32:15.779Z,4.06
2018-11-21T20:35:03.400Z,4.11
2018-11-21T20:40:26.647Z,4.15
2018-11-21T20:43:14.136Z,4.20
2018-11-21T20:45:42.904Z,4.30
2018-11-21T20:48:30.641Z,4.56
2018-11-21T20:51:18.278Z,4.31
2018-11-21T20:54:05.846Z,4.30
2018-11-21T20:56:53.517Z,4.14
2018-11-21T20:59:22.404Z,4.18
2018-11-21T21:02:10.184Z,4.04
2018-11-21T21:04:57.848Z,4.15
2018-11-21T21:07:45.472Z,4.20
2018-11-21T21:10:16.848Z,4.20
2018-11-21T21:12:45.451Z,4.15
2018-11-21T21:15:33.028Z,4.21
2018-11-21T21:18:20.692Z,4.28
2018-11-21T21:21:08.343Z,4.23
2018-11-21T21:23:55.899Z,4.27
2018-11-21T21:26:43.509Z,4.19
2018-11-21T21:29:12.178Z,4.11
2018-11-21T21:34:15.037Z,3.97
2018-11-21T21:37:02.754Z,3.99
2018-11-21T21:39:31.308Z,3.98
2018-11-21T21:42:19.197Z,4.06
2018-11-21T21:45:06.684Z,4.02
2018-11-21T21:47:36.142Z,4.06
2018-11-21T21:50:23.563Z,4.01
2018-11-21T21:53:11.234Z,3.94
2018-11-21T21:55:39.770Z,3.88
2018-11-21T21:58:08.385Z,3.84
2018-11-21T22:00:55.968Z,3.88
2018-11-21T22:03:43.604Z,3.95
2018-11-21T22:06:31.220Z,4.14
2018-11-21T22:09:18.893Z,4.12
2018-11-21T22:12:06.494Z,4.13
2018-11-21T22:14:54.124Z,4.18
2018-11-21T22:19:57.389Z,4.03
2018-11-21T22:22:45.064Z,3.96
2018-11-21T22:25:32.697Z,3.96
2018-11-21T22:28:20.421Z,4.10
2018-11-21T22:31:07.973Z,4.05
2018-11-21T22:33:55.661Z,4.02
2018-11-21T22:36:43.226Z,4.11
2018-11-21T22:39:30.972Z,3.97
2018-11-21T22:42:18.510Z,4.08
2018-11-21T22:45:06.135Z,4.06
2018-11-21T22:47:53.894Z,4.09
2018-11-21T22:50:41.503Z,4.10
2018-11-21T22:53:10.193Z,4.06
2018-11-21T22:55:38.928Z,3.94
2018-11-21T22:58:07.583Z,3.77
2018-11-21T23:00:55.375Z,3.76
2018-11-21T23:03:42.990Z,3.86
2018-11-21T23:06:30.752Z,3.89
2018-11-21T23:09:18.348Z,3.91
2018-11-21T23:12:06.021Z,3.93
2018-11-21T23:14:53.614Z,3.91
2018-11-21T23:19:56.468Z,3.89
2018-11-21T23:22:44.177Z,3.93
2018-11-21T23:25:31.777Z,3.90
2018-11-21T23:28:19.441Z,3.90
2018-11-21T23:30:48.055Z,3.90
2018-11-21T23:33:35.655Z,3.86
2018-11-21T23:36:23.274Z,3.83
2018-11-21T23:39:11.009Z,3.86
2018-11-21T23:41:58.615Z,3.86
2018-11-21T23:44:46.291Z,3.94
2018-11-21T23:47:33.993Z,3.89
2018-11-21T23:50:21.813Z,3.93
2018-11-21T23:53:09.457Z,3.94
2018-11-21T23:55:57.110Z,3.98
2018-11-21T23:58:44.716Z,4.01
